• Join FlightAware (Why Join?)
  • Login
  • US Flag 
06:22PM EST


 

Airport Tracker/Info


-or-


 

Live Flight TrackerFlight Track Log ✈ SKW7366 ✈ 10-Mar-2014 ✈ KAPN - KDTW

Flight Track Log - Related Links

Times and Time Zones

All times are in EDT time to prevent confusion due to time zone crossing. See the SKW7366 flight status page for this flight to view local times or setup timezone preferences in your user account.

Time Position Orientation Groundspeed Altitude Reporting Facility
EDT Latitude Longitude Course Direction KTS MPH feet Rate Location/Type
01:34PM 45.0642 -83.5617 172° South 142 163 1,600  Level Minneapolis Center
01:35PM 45.0600 -83.5608 172° South 167 192 1,900 3,000 Climbing Minneapolis Center
01:35PM 45.0278 -83.5719 194° South 167 192 3,800 3,240 Climbing Minneapolis Center
01:36PM 44.9736 -83.5922 195° South 200 230 7,300 3,339 Climbing Minneapolis Center
01:37PM 44.9103 -83.6150 194° South 215 247 10,700 2,516 Climbing Minneapolis Center
01:38PM 44.8342 -83.6408 194° South 297 342 12,500 2,081 Climbing Minneapolis Center
01:39PM 44.7481 -83.6706 194° South 298 343 15,000 1,210 Climbing Minneapolis Center
01:40PM 44.6625 -83.7000 194° South 314 361 15,000  Level Minneapolis Center
01:41PM 44.5786 -83.7283 194° South 290 334 15,000  Level Minneapolis Center
01:42PM 44.5058 -83.7531 194° South 275 316 15,000 48 Level Minneapolis Center
01:43PM 44.4267 -83.7800 194° South 275 316 15,100 49 Climbing Minneapolis Center
01:44PM 44.3522 -83.8050 194° South 277 319 15,100  Level Minneapolis Center
01:46PM 44.2750 -83.8314 194° South 272 313 15,100  Level Minneapolis Center
01:47PM 44.2056 -83.8542 193° South 262 302 15,100  Level Minneapolis Center
01:48PM 44.1294 -83.8800 194° South 262 302 15,100  Level Minneapolis Center
01:49PM 44.0581 -83.9028 193° South 267 307 15,100  Level Minneapolis Center
01:50PM 43.9764 -83.9308 194° South 282 325 15,100  Level Minneapolis Center
01:51PM 43.9069 -83.9542 194° South 287 330 15,100  Level Minneapolis Center
01:52PM 43.8325 -83.9775 193° South 281 323 15,100  Level Minneapolis Center
01:53PM 43.7461 -84.0072 194° South 274 315 15,100  Level Minneapolis Center
01:54PM 43.6772 -84.0331 195° South 262 302 15,100  Level Minneapolis Center
01:55PM 43.6181 -84.0783 209° Southwest 250 288 15,100  Level Minneapolis Center
01:56PM 43.5575 -84.1200 207° Southwest 246 283 15,100  Level Minneapolis Center
01:57PM 43.4978 -84.1622 207° Southwest 245 282 15,100  Level Minneapolis Center
01:58PM 43.4369 -84.2092 209° Southwest 246 283 15,100 -48 Level Minneapolis Center
01:59PM 43.3642 -84.2672 210° Southwest 287 330 15,000 -358 Descending Minneapolis Center
02:00PM 43.2639 -84.2831 187° South 351 404 14,300 -806 Descending Cleveland Center
02:01PM 43.1839 -84.1786 136° Southeast 370 426 13,200 -1,016 Descending Cleveland Center
02:02PM 43.1103 -84.0833 137° Southeast 367 422 12,200 -1,065 Descending Cleveland Center
02:03PM 43.0242 -83.9725 137° Southeast 358 412 11,000 -581 Descending Cleveland Center
02:04PM 42.9533 -83.8822 137° Southeast 354 407 11,000  Level Cleveland Center
02:05PM 42.9167 -83.8392 139° Southeast 337 388 11,000  Level Cleveland Center
02:05PM 42.8839 -83.7947 135° Southeast 341 392 11,000  Level Cleveland Center
02:06PM 42.8444 -83.7486 139° Southeast 344 396 11,000 -571 Level Cleveland Center
02:07PM 42.7692 -83.6947 152° Southeast 328 377 10,200 -1,063 Descending Cleveland Center
02:07PM 42.7164 -83.6642 157° South 330 380 9,300 -1,075 Descending Cleveland Center
02:08PM 42.6817 -83.6336 147° Southeast 319 367 9,000 -387 Descending Cleveland Center
02:08PM 42.6678 -83.5869 112° Southeast 319 367 8,900 -590 Descending Cleveland Center
02:09PM 42.6503 -83.5267 112° Southeast 284 327 8,400 -871 Descending Cleveland Center
02:09PM 42.6408 -83.4836 107° East 293 337 8,000 -387 Descending Cleveland Center
02:10PM 42.6231 -83.4208 111° Southeast 291 335 8,000  Level Cleveland Center
02:10PM 42.6069 -83.3594 110° East 290 334 8,000  Level Cleveland Center
02:11PM 42.5969 -83.3261 112° Southeast 290 334 8,000 -677 Level Cleveland Center
02:11PM 42.5797 -83.2558 108° East 290 334 7,300 -982 Descending Cleveland Center
02:12PM 42.5725 -83.2350 115° Southeast 291 335 7,100 -290 Descending Cleveland Center
02:13PM 42.5450 -83.1608 117° Southeast 290 334 7,000 -164 Descending Cleveland Center
02:13PM 42.5114 -83.1556 173° South 251 289 6,900 -774 Descending Cleveland Center
02:14PM 42.4778 -83.1586 184° South 247 284 6,200 -1,393 Descending Cleveland Center
02:14PM 42.4556 -83.1761 210° Southwest 221 254 5,600 -1,452 Descending Cleveland Center
02:15PM 42.4261 -83.2008 212° Southwest 223 257 4,700 -1,180 Descending Cleveland Center
02:15PM 42.4061 -83.2172 211° Southwest 187 215 4,400 -387 Descending Cleveland Center
02:16PM 42.3822 -83.2364 211° Southwest 195 224 4,300 -295 Descending Cleveland Center
02:16PM 42.3639 -83.2511 211° Southwest 183 211 4,100 -774 Descending Cleveland Center
02:17PM 42.3383 -83.2700 209° Southwest 186 214 3,500 -1,180 Descending Cleveland Center
02:17PM 42.3194 -83.2842 209° Southwest 173 199 2,900 -1,238 Descending Cleveland Center
02:18PM 42.2892 -83.3069 209° Southwest 175 201 2,200 -871 Descending Cleveland Center
02:18PM 42.2792 -83.3153 212° Southwest 138 159 2,000 -871 Descending Cleveland Center
02:19PM 42.2581 -83.3297 207° Southwest 145 167 1,300 -885 Descending Cleveland Center
02:19PM 42.2503 -83.3367 213° Southwest 116 133 1,100 -290 Descending Cleveland Center
02:20PM 42.2319 -83.3506 209° Southwest 135 155 1,000 -120 Descending Cleveland Center